Soldotna, AK (99669)

3:15 AM AKDT on September 15, 2014 (GMT -0800)
W. Corral PWS | Change Station
CLOSE
Current Station
Personal Weather Station
Location: Soldotna, AK
Elevation: 110 ft
Nearby Weather Stations

Elev 110 ft 60.49 °N, 151.08 °W | Updated 27 seconds ago

Overcast
Overcast
53.8 °F
Feels Like 53.8 °F
N
1.6
Wind Variable Wind from SW
Gusts 2.2 mph

Today
High -- | Low -- °F
--% Chance of Precip.
Yesterday
High -- | Low -- °F
Precip. -- in
7:32 AM 8:25 PM
Waning Gibbous, 56% visible
Pressure 29.52 in
Visibility 10.0 miles
Clouds Overcast 7500 ft
Dew Point 45 °F
Humidity 71%
Rainfall 0.00 in
Snow Depth 0 in , 2 in , 0 in
UV 0 out of 12
Pollen Not available.
Air Quality Not available.
Flu Activity Not available.
METAR PASX 151056Z AUTO 08003KT 10SM OVC075 12/04 A2952 RMK AO1

More Conditions Fewer Conditions

Pressure 29.52 in
Visibility 10.0 miles
Clouds Overcast 7500 ft
Dew Point 45 °F
Humidity 71%
Rainfall 0.00 in
Snow Depth 0 in , 2 in , 0 in
UV 0 out of 12
Pollen Not available.
Air Quality Not available.
Flu Activity Not available.
METAR PASX 151056Z AUTO 08003KT 10SM OVC075 12/04 A2952 RMK AO1

More Conditions Fewer Conditions

10-Day Weather Forecast

Almanac

Astronomy

Sep. 15, 2014 Rise Set
Actual Time 7:32 AM AKDT 8:25 PM AKDT
Civil Twilight 6:49 AM AKDT 9:07 PM AKDT
Nautical Twilight 5:56 AM AKDT 10:00 PM AKDT
Astronomical Twilight 4:55 AM AKDT 11:00 PM AKDT
Moon 11:42 PM AKDT 4:16 PM AKDT
Length of Visible Light 14h 18m
Length of Day
12h 52m
Tomorrow will be 5m 30s shorter.
Waning Gibbous, 56% of the Moon is Illuminated
Today
Waning Gibbous
Sep 15
Last Quarter
Sep 24
New
Oct 1
First Quarter
Oct 8
Full

Today's Extremes

State Highs State Lows

Community

WunderPhotos

Upload Photos

1,753,429 photos uploaded!

Nearby

Snow Depth

Station Depth Elevation
Atigun Pass 5 in 4800 ft
Atigun Pass 5 in 4800 ft
Long Lake 0 in 820 ft
Granite Creek 0 in 1240 ft
Nuka Glacier 164 in 1250 ft

Earthquake Activity

City Distance Mag. Time & Date
No recent earthquake activity has been reported nearby.
Minimum magnitude displayed is 2.5.

Coastal Water Temperatures

Place Temperature
No Stations Reporting

Nearby Weather Stations